sensor_id;sensor_type;location;lat;lon;timestamp;pressure;altitude;pressure_sealevel;temperature
76901;BMP280;65859;43.020;25.096;2023-02-15T00:01:35;100636.69;;;0.75
76901;BMP280;65859;43.020;25.096;2023-02-15T00:04:03;100633.72;;;0.90
76901;BMP280;65859;43.020;25.096;2023-02-15T00:06:30;100628.13;;;0.86
76901;BMP280;65859;43.020;25.096;2023-02-15T00:08:56;100636.41;;;0.83
76901;BMP280;65859;43.020;25.096;2023-02-15T00:11:23;100635.22;;;0.79
76901;BMP280;65859;43.020;25.096;2023-02-15T00:14:13;100634.56;;;0.84
76901;BMP280;65859;43.020;25.096;2023-02-15T00:16:42;100639.66;;;0.79
76901;BMP280;65859;43.020;25.096;2023-02-15T00:19:10;100639.81;;;0.84
76901;BMP280;65859;43.020;25.096;2023-02-15T00:21:37;100620.16;;;0.81
76901;BMP280;65859;43.020;25.096;2023-02-15T00:24:06;100634.44;;;0.79
76901;BMP280;65859;43.020;25.096;2023-02-15T00:26:33;100631.59;;;0.80
76901;BMP280;65859;43.020;25.096;2023-02-15T00:29:00;100636.09;;;0.73
76901;BMP280;65859;43.020;25.096;2023-02-15T00:31:28;100629.44;;;0.52
76901;BMP280;65859;43.020;25.096;2023-02-15T00:34:04;100624.38;;;0.57
76901;BMP280;65859;43.020;25.096;2023-02-15T00:36:30;100621.66;;;0.45
76901;BMP280;65859;43.020;25.096;2023-02-15T00:38:57;100625.88;;;0.46
76901;BMP280;65859;43.020;25.096;2023-02-15T00:41:24;100625.03;;;0.53
76901;BMP280;65859;43.020;25.096;2023-02-15T00:43:50;100621.28;;;0.42
76901;BMP280;65859;43.020;25.096;2023-02-15T00:46:16;100627.84;;;0.51
76901;BMP280;65859;43.020;25.096;2023-02-15T00:48:43;100628.91;;;0.43
76901;BMP280;65859;43.020;25.096;2023-02-15T00:51:09;100628.19;;;0.80
76901;BMP280;65859;43.020;25.096;2023-02-15T00:53:36;100617.66;;;0.43
76901;BMP280;65859;43.020;25.096;2023-02-15T00:56:02;100617.81;;;0.73
76901;BMP280;65859;43.020;25.096;2023-02-15T00:58:28;100613.50;;;1.04
76901;BMP280;65859;43.020;25.096;2023-02-15T01:00:55;100622.91;;;0.86
76901;BMP280;65859;43.020;25.096;2023-02-15T01:03:28;100622.59;;;0.76
76901;BMP280;65859;43.020;25.096;2023-02-15T01:05:55;100623.63;;;0.75
76901;BMP280;65859;43.020;25.096;2023-02-15T01:08:21;100623.44;;;0.52
76901;BMP280;65859;43.020;25.096;2023-02-15T01:10:48;100618.31;;;0.63
76901;BMP280;65859;43.020;25.096;2023-02-15T01:13:16;100621.47;;;0.22
76901;BMP280;65859;43.020;25.096;2023-02-15T01:15:43;100622.41;;;0.03
76901;BMP280;65859;43.020;25.096;2023-02-15T01:18:10;100624.75;;;0.11
76901;BMP280;65859;43.020;25.096;2023-02-15T01:20:39;100615.56;;;0.08
76901;BMP280;65859;43.020;25.096;2023-02-15T01:23:07;100618.69;;;0.42
76901;BMP280;65859;43.020;25.096;2023-02-15T01:25:35;100612.72;;;0.10
76901;BMP280;65859;43.020;25.096;2023-02-15T01:28:02;100607.25;;;0.18
76901;BMP280;65859;43.020;25.096;2023-02-15T01:30:29;100610.06;;;0.41
76901;BMP280;65859;43.020;25.096;2023-02-15T01:32:56;100613.16;;;0.32
76901;BMP280;65859;43.020;25.096;2023-02-15T01:35:23;100612.94;;;0.33
76901;BMP280;65859;43.020;25.096;2023-02-15T01:37:51;100603.16;;;0.47
76901;BMP280;65859;43.020;25.096;2023-02-15T01:40:18;100604.84;;;0.16
76901;BMP280;65859;43.020;25.096;2023-02-15T01:42:49;100604.78;;;-0.02
76901;BMP280;65859;43.020;25.096;2023-02-15T01:50:25;100596.28;;;0.09
76901;BMP280;65859;43.020;25.096;2023-02-15T01:53:23;100596.22;;;0.41
76901;BMP280;65859;43.020;25.096;2023-02-15T01:56:37;100596.63;;;0.63
76901;BMP280;65859;43.020;25.096;2023-02-15T01:58:44;100594.31;;;0.30
76901;BMP280;65859;43.020;25.096;2023-02-15T02:01:11;100590.75;;;0.42
76901;BMP280;65859;43.020;25.096;2023-02-15T02:06:20;100606.34;;;0.06
76901;BMP280;65859;43.020;25.096;2023-02-15T02:08:48;100597.84;;;0.10
76901;BMP280;65859;43.020;25.096;2023-02-15T02:11:15;100600.81;;;-0.11
76901;BMP280;65859;43.020;25.096;2023-02-15T02:13:43;100594.97;;;-0.07
76901;BMP280;65859;43.020;25.096;2023-02-15T02:16:21;100597.97;;;-0.03
76901;BMP280;65859;43.020;25.096;2023-02-15T02:30:44;100605.41;;;-0.07
76901;BMP280;65859;43.020;25.096;2023-02-15T02:33:35;100597.25;;;-0.17
76901;BMP280;65859;43.020;25.096;2023-02-15T02:36:18;100599.09;;;-0.24
76901;BMP280;65859;43.020;25.096;2023-02-15T02:44:10;100608.91;;;-0.26
76901;BMP280;65859;43.020;25.096;2023-02-15T02:52:02;100611.72;;;-0.21
76901;BMP280;65859;43.020;25.096;2023-02-15T02:54:30;100606.09;;;-0.18
76901;BMP280;65859;43.020;25.096;2023-02-15T02:57:00;100598.78;;;-0.47
76901;BMP280;65859;43.020;25.096;2023-02-15T02:59:31;100604.16;;;-0.42
76901;BMP280;65859;43.020;25.096;2023-02-15T03:02:09;100601.84;;;-0.64
76901;BMP280;65859;43.020;25.096;2023-02-15T03:04:41;100607.69;;;-0.68
76901;BMP280;65859;43.020;25.096;2023-02-15T03:07:12;100609.91;;;-0.72
76901;BMP280;65859;43.020;25.096;2023-02-15T03:09:46;100605.13;;;-0.30
76901;BMP280;65859;43.020;25.096;2023-02-15T03:12:26;100612.66;;;-0.54
76901;BMP280;65859;43.020;25.096;2023-02-15T03:15:09;100611.81;;;-0.47
76901;BMP280;65859;43.020;25.096;2023-02-15T03:17:40;100623.44;;;-0.43
76901;BMP280;65859;43.020;25.096;2023-02-15T03:20:16;100631.16;;;-0.75
76901;BMP280;65859;43.020;25.096;2023-02-15T03:22:49;100633.19;;;-0.77
76901;BMP280;65859;43.020;25.096;2023-02-15T03:25:32;100627.88;;;-0.51
76901;BMP280;65859;43.020;25.096;2023-02-15T03:28:03;100631.56;;;-0.85
76901;BMP280;65859;43.020;25.096;2023-02-15T03:30:32;100641.22;;;-0.85
76901;BMP280;65859;43.020;25.096;2023-02-15T03:33:00;100627.13;;;-0.64
76901;BMP280;65859;43.020;25.096;2023-02-15T03:35:39;100630.00;;;-0.92
76901;BMP280;65859;43.020;25.096;2023-02-15T03:38:11;100626.72;;;-0.68
76901;BMP280;65859;43.020;25.096;2023-02-15T03:40:43;100632.81;;;-1.01
76901;BMP280;65859;43.020;25.096;2023-02-15T03:44:04;100635.44;;;-1.01
76901;BMP280;65859;43.020;25.096;2023-02-15T03:46:47;100634.81;;;-0.89
76901;BMP280;65859;43.020;25.096;2023-02-15T03:49:27;100636.06;;;-1.12
76901;BMP280;65859;43.020;25.096;2023-02-15T03:51:57;100648.44;;;-0.94
76901;BMP280;65859;43.020;25.096;2023-02-15T03:54:30;100647.66;;;-0.94
76901;BMP280;65859;43.020;25.096;2023-02-15T03:57:16;100652.66;;;-0.93
76901;BMP280;65859;43.020;25.096;2023-02-15T04:00:20;100660.09;;;-1.16
76901;BMP280;65859;43.020;25.096;2023-02-15T04:03:29;100669.69;;;-1.37
76901;BMP280;65859;43.020;25.096;2023-02-15T04:05:57;100664.13;;;-1.34
76901;BMP280;65859;43.020;25.096;2023-02-15T04:08:24;100673.34;;;-1.31
76901;BMP280;65859;43.020;25.096;2023-02-15T04:11:10;100669.31;;;-1.34
76901;BMP280;65859;43.020;25.096;2023-02-15T04:13:36;100671.13;;;-1.21
76901;BMP280;65859;43.020;25.096;2023-02-15T04:16:03;100668.72;;;-1.23
76901;BMP280;65859;43.020;25.096;2023-02-15T04:18:40;100673.13;;;-1.16
76901;BMP280;65859;43.020;25.096;2023-02-15T04:21:27;100673.88;;;-0.76
76901;BMP280;65859;43.020;25.096;2023-02-15T04:24:13;100675.72;;;-1.10
76901;BMP280;65859;43.020;25.096;2023-02-15T04:27:00;100678.91;;;-1.08
76901;BMP280;65859;43.020;25.096;2023-02-15T04:29:27;100681.44;;;-0.68
76901;BMP280;65859;43.020;25.096;2023-02-15T04:31:55;100680.03;;;-0.64
76901;BMP280;65859;43.020;25.096;2023-02-15T04:34:22;100679.03;;;-0.63
76901;BMP280;65859;43.020;25.096;2023-02-15T04:36:49;100681.06;;;-0.65
76901;BMP280;65859;43.020;25.096;2023-02-15T04:39:17;100675.56;;;-0.43
76901;BMP280;65859;43.020;25.096;2023-02-15T04:41:44;100683.19;;;-0.49
76901;BMP280;65859;43.020;25.096;2023-02-15T04:44:11;100687.34;;;-0.34
76901;BMP280;65859;43.020;25.096;2023-02-15T04:46:37;100685.84;;;-0.55
76901;BMP280;65859;43.020;25.096;2023-02-15T04:49:04;100690.19;;;-0.42
76901;BMP280;65859;43.020;25.096;2023-02-15T04:51:30;100695.88;;;-0.65
76901;BMP280;65859;43.020;25.096;2023-02-15T04:53:57;100685.16;;;-0.31
76901;BMP280;65859;43.020;25.096;2023-02-15T04:56:23;100693.19;;;-0.39
76901;BMP280;65859;43.020;25.096;2023-02-15T04:58:51;100679.22;;;0.32
76901;BMP280;65859;43.020;25.096;2023-02-15T05:01:17;100680.22;;;-0.01
76901;BMP280;65859;43.020;25.096;2023-02-15T05:03:44;100686.97;;;-0.38
76901;BMP280;65859;43.020;25.096;2023-02-15T05:06:10;100689.69;;;-0.71
76901;BMP280;65859;43.020;25.096;2023-02-15T05:08:37;100687.22;;;-0.59
76901;BMP280;65859;43.020;25.096;2023-02-15T05:11:03;100696.03;;;-0.47
76901;BMP280;65859;43.020;25.096;2023-02-15T05:13:29;100697.00;;;-0.28
76901;BMP280;65859;43.020;25.096;2023-02-15T05:15:56;100695.63;;;0.08
76901;BMP280;65859;43.020;25.096;2023-02-15T05:18:22;100711.75;;;-0.09
76901;BMP280;65859;43.020;25.096;2023-02-15T05:20:49;100712.50;;;0.05
76901;BMP280;65859;43.020;25.096;2023-02-15T05:23:16;100713.59;;;-0.16
76901;BMP280;65859;43.020;25.096;2023-02-15T05:25:49;100712.84;;;-0.36
76901;BMP280;65859;43.020;25.096;2023-02-15T05:28:35;100729.31;;;-0.42
76901;BMP280;65859;43.020;25.096;2023-02-15T05:31:16;100731.31;;;-0.44
76901;BMP280;65859;43.020;25.096;2023-02-15T05:33:44;100725.31;;;-0.52
76901;BMP280;65859;43.020;25.096;2023-02-15T05:36:11;100732.31;;;-0.45
76901;BMP280;65859;43.020;25.096;2023-02-15T05:38:38;100731.69;;;-0.21
76901;BMP280;65859;43.020;25.096;2023-02-15T05:41:09;100735.31;;;0.16
76901;BMP280;65859;43.020;25.096;2023-02-15T05:43:36;100742.44;;;-0.04
76901;BMP280;65859;43.020;25.096;2023-02-15T05:46:03;100748.41;;;0.10
76901;BMP280;65859;43.020;25.096;2023-02-15T05:48:30;100741.72;;;0.20
76901;BMP280;65859;43.020;25.096;2023-02-15T05:51:06;100748.66;;;-0.05
76901;BMP280;65859;43.020;25.096;2023-02-15T05:53:34;100744.84;;;0.04
76901;BMP280;65859;43.020;25.096;2023-02-15T05:56:02;100746.44;;;-0.02
76901;BMP280;65859;43.020;25.096;2023-02-15T05:58:31;100756.44;;;0.08
76901;BMP280;65859;43.020;25.096;2023-02-15T06:00:57;100765.66;;;0.11
76901;BMP280;65859;43.020;25.096;2023-02-15T06:03:25;100755.94;;;0.31
76901;BMP280;65859;43.020;25.096;2023-02-15T06:05:54;100760.41;;;0.17
76901;BMP280;65859;43.020;25.096;2023-02-15T06:08:20;100769.06;;;0.49
76901;BMP280;65859;43.020;25.096;2023-02-15T06:10:47;100762.16;;;0.87
76901;BMP280;65859;43.020;25.096;2023-02-15T06:13:13;100761.38;;;0.86
76901;BMP280;65859;43.020;25.096;2023-02-15T06:15:40;100761.72;;;0.65
76901;BMP280;65859;43.020;25.096;2023-02-15T06:18:06;100761.44;;;0.48
76901;BMP280;65859;43.020;25.096;2023-02-15T06:20:33;100766.44;;;0.49
76901;BMP280;65859;43.020;25.096;2023-02-15T06:22:59;100767.34;;;0.62
76901;BMP280;65859;43.020;25.096;2023-02-15T06:25:26;100773.19;;;0.64
76901;BMP280;65859;43.020;25.096;2023-02-15T06:27:53;100769.78;;;0.88
76901;BMP280;65859;43.020;25.096;2023-02-15T06:30:20;100768.59;;;0.84
76901;BMP280;65859;43.020;25.096;2023-02-15T06:32:46;100767.34;;;0.93
76901;BMP280;65859;43.020;25.096;2023-02-15T06:35:14;100774.19;;;1.38
76901;BMP280;65859;43.020;25.096;2023-02-15T06:37:40;100774.88;;;1.33
76901;BMP280;65859;43.020;25.096;2023-02-15T06:40:07;100777.09;;;1.48
76901;BMP280;65859;43.020;25.096;2023-02-15T06:42:34;100782.13;;;2.16
76901;BMP280;65859;43.020;25.096;2023-02-15T06:45:00;100780.06;;;2.07
76901;BMP280;65859;43.020;25.096;2023-02-15T06:47:27;100776.06;;;2.04
76901;BMP280;65859;43.020;25.096;2023-02-15T06:49:54;100781.63;;;2.38
76901;BMP280;65859;43.020;25.096;2023-02-15T06:52:20;100777.75;;;2.82
76901;BMP280;65859;43.020;25.096;2023-02-15T06:54:46;100781.47;;;3.57
76901;BMP280;65859;43.020;25.096;2023-02-15T06:57:13;100779.66;;;3.57
76901;BMP280;65859;43.020;25.096;2023-02-15T06:59:39;100771.50;;;3.18
76901;BMP280;65859;43.020;25.096;2023-02-15T07:02:08;100773.13;;;4.00
76901;BMP280;65859;43.020;25.096;2023-02-15T07:04:35;100773.13;;;4.45
76901;BMP280;65859;43.020;25.096;2023-02-15T07:07:03;100769.78;;;4.84
76901;BMP280;65859;43.020;25.096;2023-02-15T07:09:29;100769.28;;;5.69
76901;BMP280;65859;43.020;25.096;2023-02-15T07:11:55;100757.56;;;6.41
76901;BMP280;65859;43.020;25.096;2023-02-15T07:14:40;100758.75;;;6.61
76901;BMP280;65859;43.020;25.096;2023-02-15T07:17:07;100754.75;;;6.58
76901;BMP280;65859;43.020;25.096;2023-02-15T07:19:33;100762.31;;;6.82
76901;BMP280;65859;43.020;25.096;2023-02-15T07:21:59;100761.44;;;6.71
76901;BMP280;65859;43.020;25.096;2023-02-15T07:24:26;100754.75;;;7.05
76901;BMP280;65859;43.020;25.096;2023-02-15T07:26:52;100757.38;;;6.95
76901;BMP280;65859;43.020;25.096;2023-02-15T07:29:19;100758.53;;;7.25
76901;BMP280;65859;43.020;25.096;2023-02-15T07:31:46;100755.16;;;6.77
76901;BMP280;65859;43.020;25.096;2023-02-15T07:34:13;100754.81;;;7.16
76901;BMP280;65859;43.020;25.096;2023-02-15T07:36:39;100753.66;;;7.69
76901;BMP280;65859;43.020;25.096;2023-02-15T07:39:07;100748.50;;;7.22
76901;BMP280;65859;43.020;25.096;2023-02-15T07:41:33;100753.25;;;7.25
76901;BMP280;65859;43.020;25.096;2023-02-15T07:44:00;100749.94;;;7.65
76901;BMP280;65859;43.020;25.096;2023-02-15T07:46:26;100748.91;;;7.66
76901;BMP280;65859;43.020;25.096;2023-02-15T07:48:52;100745.59;;;7.18
76901;BMP280;65859;43.020;25.096;2023-02-15T07:51:19;100754.94;;;7.56
76901;BMP280;65859;43.020;25.096;2023-02-15T07:53:45;100746.31;;;7.03
76901;BMP280;65859;43.020;25.096;2023-02-15T07:56:14;100750.88;;;7.23
76901;BMP280;65859;43.020;25.096;2023-02-15T07:58:40;100748.59;;;7.47
76901;BMP280;65859;43.020;25.096;2023-02-15T08:01:27;100750.16;;;7.48
76901;BMP280;65859;43.020;25.096;2023-02-15T08:03:55;100754.34;;;7.39
76901;BMP280;65859;43.020;25.096;2023-02-15T08:06:26;100748.13;;;7.71
76901;BMP280;65859;43.020;25.096;2023-02-15T08:08:53;100749.47;;;8.14
76901;BMP280;65859;43.020;25.096;2023-02-15T08:11:22;100752.50;;;7.35
76901;BMP280;65859;43.020;25.096;2023-02-15T08:13:56;100755.78;;;8.08
76901;BMP280;65859;43.020;25.096;2023-02-15T08:16:31;100752.31;;;8.48
76901;BMP280;65859;43.020;25.096;2023-02-15T08:19:00;100754.19;;;8.27
76901;BMP280;65859;43.020;25.096;2023-02-15T08:21:28;100743.84;;;7.59
76901;BMP280;65859;43.020;25.096;2023-02-15T08:23:56;100736.47;;;7.87
76901;BMP280;65859;43.020;25.096;2023-02-15T08:26:23;100742.00;;;7.75
76901;BMP280;65859;43.020;25.096;2023-02-15T08:28:50;100744.88;;;7.43
76901;BMP280;65859;43.020;25.096;2023-02-15T08:31:17;100748.63;;;7.63
76901;BMP280;65859;43.020;25.096;2023-02-15T08:33:45;100744.16;;;8.29
76901;BMP280;65859;43.020;25.096;2023-02-15T08:36:15;100747.25;;;7.45
76901;BMP280;65859;43.020;25.096;2023-02-15T08:38:43;100754.16;;;8.48
76901;BMP280;65859;43.020;25.096;2023-02-15T08:41:30;100752.63;;;8.06
76901;BMP280;65859;43.020;25.096;2023-02-15T08:44:00;100764.44;;;8.70
76901;BMP280;65859;43.020;25.096;2023-02-15T08:46:29;100748.69;;;9.14
76901;BMP280;65859;43.020;25.096;2023-02-15T08:48:56;100745.34;;;10.40
76901;BMP280;65859;43.020;25.096;2023-02-15T08:51:28;100757.66;;;9.96
76901;BMP280;65859;43.020;25.096;2023-02-15T08:53:57;100762.28;;;11.29
76901;BMP280;65859;43.020;25.096;2023-02-15T08:56:26;100763.13;;;11.81
76901;BMP280;65859;43.020;25.096;2023-02-15T08:58:54;100765.78;;;11.62
76901;BMP280;65859;43.020;25.096;2023-02-15T09:01:29;100772.13;;;12.27
76901;BMP280;65859;43.020;25.096;2023-02-15T09:03:59;100752.50;;;13.81
76901;BMP280;65859;43.020;25.096;2023-02-15T09:06:26;100750.31;;;11.97
76901;BMP280;65859;43.020;25.096;2023-02-15T09:08:54;100771.44;;;10.80
76901;BMP280;65859;43.020;25.096;2023-02-15T09:11:29;100751.59;;;9.62
76901;BMP280;65859;43.020;25.096;2023-02-15T09:14:07;100754.41;;;9.31
76901;BMP280;65859;43.020;25.096;2023-02-15T09:16:37;100757.25;;;8.90
76901;BMP280;65859;43.020;25.096;2023-02-15T09:19:05;100754.94;;;8.63
76901;BMP280;65859;43.020;25.096;2023-02-15T09:21:32;100756.13;;;12.95
76901;BMP280;65859;43.020;25.096;2023-02-15T09:24:02;100776.94;;;14.28
76901;BMP280;65859;43.020;25.096;2023-02-15T09:26:30;100753.66;;;9.99
76901;BMP280;65859;43.020;25.096;2023-02-15T09:28:59;100760.69;;;8.91
76901;BMP280;65859;43.020;25.096;2023-02-15T09:31:32;100753.75;;;9.00
76901;BMP280;65859;43.020;25.096;2023-02-15T09:34:00;100744.69;;;9.11
76901;BMP280;65859;43.020;25.096;2023-02-15T09:36:31;100746.78;;;9.25
76901;BMP280;65859;43.020;25.096;2023-02-15T09:50:11;100736.66;;;8.72
76901;BMP280;65859;43.020;25.096;2023-02-15T09:56:12;100744.06;;;16.63
76901;BMP280;65859;43.020;25.096;2023-02-15T09:58:46;100738.97;;;18.74
76901;BMP280;65859;43.020;25.096;2023-02-15T10:12:42;100709.94;;;9.67
76901;BMP280;65859;43.020;25.096;2023-02-15T10:18:51;100725.19;;;14.15
76901;BMP280;65859;43.020;25.096;2023-02-15T10:21:46;100720.00;;;13.79
76901;BMP280;65859;43.020;25.096;2023-02-15T10:26:56;100720.50;;;20.56
76901;BMP280;65859;43.020;25.096;2023-02-15T10:34:50;100721.19;;;20.95
76901;BMP280;65859;43.020;25.096;2023-02-15T10:40:31;100709.94;;;21.65
76901;BMP280;65859;43.020;25.096;2023-02-15T11:06:08;100689.44;;;15.20
76901;BMP280;65859;43.020;25.096;2023-02-15T11:08:44;100683.88;;;13.73
76901;BMP280;65859;43.020;25.096;2023-02-15T11:11:39;100685.53;;;14.91
76901;BMP280;65859;43.020;25.096;2023-02-15T11:17:02;100678.53;;;12.97
76901;BMP280;65859;43.020;25.096;2023-02-15T11:19:53;100674.38;;;13.04
76901;BMP280;65859;43.020;25.096;2023-02-15T11:22:21;100673.38;;;13.45
76901;BMP280;65859;43.020;25.096;2023-02-15T11:24:48;100670.00;;;12.86
76901;BMP280;65859;43.020;25.096;2023-02-15T11:27:28;100670.84;;;12.73
76901;BMP280;65859;43.020;25.096;2023-02-15T11:30:22;100670.25;;;13.43
76901;BMP280;65859;43.020;25.096;2023-02-15T11:32:55;100657.88;;;12.58
76901;BMP280;65859;43.020;25.096;2023-02-15T11:38:29;100657.97;;;13.11
76901;BMP280;65859;43.020;25.096;2023-02-15T11:41:03;100653.66;;;13.01
76901;BMP280;65859;43.020;25.096;2023-02-15T11:43:54;100651.06;;;12.52
76901;BMP280;65859;43.020;25.096;2023-02-15T11:46:23;100649.47;;;13.09
76901;BMP280;65859;43.020;25.096;2023-02-15T11:48:49;100641.00;;;12.48
76901;BMP280;65859;43.020;25.096;2023-02-15T11:51:18;100646.38;;;13.16
76901;BMP280;65859;43.020;25.096;2023-02-15T11:53:47;100642.88;;;12.84
76901;BMP280;65859;43.020;25.096;2023-02-15T11:56:18;100641.44;;;12.64
76901;BMP280;65859;43.020;25.096;2023-02-15T11:58:51;100632.69;;;13.09
76901;BMP280;65859;43.020;25.096;2023-02-15T12:01:44;100645.00;;;12.10
76901;BMP280;65859;43.020;25.096;2023-02-15T12:10:05;100622.25;;;12.17
76901;BMP280;65859;43.020;25.096;2023-02-15T12:12:40;100619.44;;;11.68
76901;BMP280;65859;43.020;25.096;2023-02-15T12:15:09;100618.75;;;12.31
76901;BMP280;65859;43.020;25.096;2023-02-15T12:17:55;100616.69;;;11.59
76901;BMP280;65859;43.020;25.096;2023-02-15T12:20:30;100619.56;;;11.62
76901;BMP280;65859;43.020;25.096;2023-02-15T12:23:11;100613.97;;;11.91
76901;BMP280;65859;43.020;25.096;2023-02-15T12:25:58;100617.06;;;12.35
76901;BMP280;65859;43.020;25.096;2023-02-15T12:28:35;100602.41;;;11.55
76901;BMP280;65859;43.020;25.096;2023-02-15T12:31:07;100604.66;;;11.48
76901;BMP280;65859;43.020;25.096;2023-02-15T12:33:42;100604.44;;;11.44
76901;BMP280;65859;43.020;25.096;2023-02-15T12:36:24;100602.41;;;10.90
76901;BMP280;65859;43.020;25.096;2023-02-15T12:42:00;100595.25;;;11.23
76901;BMP280;65859;43.020;25.096;2023-02-15T12:44:37;100591.31;;;11.20
76901;BMP280;65859;43.020;25.096;2023-02-15T12:49:43;100585.22;;;11.01
76901;BMP280;65859;43.020;25.096;2023-02-15T12:52:24;100585.91;;;11.39
76901;BMP280;65859;43.020;25.096;2023-02-15T12:54:51;100577.25;;;11.33
76901;BMP280;65859;43.020;25.096;2023-02-15T13:00:04;100584.94;;;10.84
76901;BMP280;65859;43.020;25.096;2023-02-15T13:08:16;100573.50;;;11.21
76901;BMP280;65859;43.020;25.096;2023-02-15T13:11:08;100562.22;;;11.10
76901;BMP280;65859;43.020;25.096;2023-02-15T13:14:15;100565.16;;;10.76
76901;BMP280;65859;43.020;25.096;2023-02-15T13:16:44;100564.66;;;11.06
76901;BMP280;65859;43.020;25.096;2023-02-15T13:19:17;100561.78;;;11.22
76901;BMP280;65859;43.020;25.096;2023-02-15T13:21:50;100563.84;;;11.25
76901;BMP280;65859;43.020;25.096;2023-02-15T13:24:33;100563.97;;;11.01
76901;BMP280;65859;43.020;25.096;2023-02-15T13:27:02;100552.00;;;10.85
76901;BMP280;65859;43.020;25.096;2023-02-15T13:29:35;100557.84;;;10.87
76901;BMP280;65859;43.020;25.096;2023-02-15T13:32:12;100558.94;;;10.67
76901;BMP280;65859;43.020;25.096;2023-02-15T13:34:41;100557.53;;;10.13
76901;BMP280;65859;43.020;25.096;2023-02-15T13:40:11;100555.28;;;10.01
76901;BMP280;65859;43.020;25.096;2023-02-15T13:50:49;100571.59;;;9.89
76901;BMP280;65859;43.020;25.096;2023-02-15T13:56:24;100559.13;;;9.90
76901;BMP280;65859;43.020;25.096;2023-02-15T13:59:27;100552.81;;;9.86
76901;BMP280;65859;43.020;25.096;2023-02-15T14:05:15;100560.19;;;9.89
76901;BMP280;65859;43.020;25.096;2023-02-15T14:10:46;100561.44;;;9.72
76901;BMP280;65859;43.020;25.096;2023-02-15T14:16:41;100551.91;;;9.71
76901;BMP280;65859;43.020;25.096;2023-02-15T14:22:30;100551.31;;;9.80
76901;BMP280;65859;43.020;25.096;2023-02-15T14:25:28;100560.44;;;9.68
76901;BMP280;65859;43.020;25.096;2023-02-15T14:28:08;100560.88;;;9.76
76901;BMP280;65859;43.020;25.096;2023-02-15T14:30:41;100556.75;;;9.64
76901;BMP280;65859;43.020;25.096;2023-02-15T14:35:40;100555.66;;;9.65
76901;BMP280;65859;43.020;25.096;2023-02-15T14:41:15;100564.25;;;9.57
76901;BMP280;65859;43.020;25.096;2023-02-15T14:48:56;100564.63;;;9.45
76901;BMP280;65859;43.020;25.096;2023-02-15T15:00:00;100559.13;;;9.37
76901;BMP280;65859;43.020;25.096;2023-02-15T15:02:48;100559.66;;;9.39
76901;BMP280;65859;43.020;25.096;2023-02-15T15:05:56;100560.50;;;9.34
76901;BMP280;65859;43.020;25.096;2023-02-15T15:08:42;100558.97;;;9.23
76901;BMP280;65859;43.020;25.096;2023-02-15T15:14:00;100564.59;;;9.16
76901;BMP280;65859;43.020;25.096;2023-02-15T15:16:33;100560.88;;;9.17
76901;BMP280;65859;43.020;25.096;2023-02-15T15:19:12;100563.81;;;9.16
76901;BMP280;65859;43.020;25.096;2023-02-15T15:22:03;100568.94;;;9.02
76901;BMP280;65859;43.020;25.096;2023-02-15T15:48:51;100568.81;;;8.29
76901;BMP280;65859;43.020;25.096;2023-02-15T15:51:22;100576.25;;;8.22
76901;BMP280;65859;43.020;25.096;2023-02-15T15:53:54;100573.56;;;8.32
76901;BMP280;65859;43.020;25.096;2023-02-15T15:56:27;100573.03;;;8.30
76901;BMP280;65859;43.020;25.096;2023-02-15T15:59:04;100577.81;;;8.28
76901;BMP280;65859;43.020;25.096;2023-02-15T16:01:35;100576.28;;;8.11
76901;BMP280;65859;43.020;25.096;2023-02-15T16:04:04;100582.38;;;8.02
76901;BMP280;65859;43.020;25.096;2023-02-15T16:06:38;100575.78;;;7.94
76901;BMP280;65859;43.020;25.096;2023-02-15T16:09:11;100583.47;;;7.91
76901;BMP280;65859;43.020;25.096;2023-02-15T16:11:38;100583.75;;;7.64
76901;BMP280;65859;43.020;25.096;2023-02-15T16:14:35;100582.19;;;7.78
76901;BMP280;65859;43.020;25.096;2023-02-15T16:17:05;100579.81;;;7.56
76901;BMP280;65859;43.020;25.096;2023-02-15T16:19:37;100582.97;;;7.27
76901;BMP280;65859;43.020;25.096;2023-02-15T16:22:18;100581.13;;;7.23
76901;BMP280;65859;43.020;25.096;2023-02-15T16:27:36;100586.72;;;7.47
76901;BMP280;65859;43.020;25.096;2023-02-15T16:32:48;100584.78;;;7.01
76901;BMP280;65859;43.020;25.096;2023-02-15T16:35:17;100591.69;;;7.18
76901;BMP280;65859;43.020;25.096;2023-02-15T16:37:47;100595.63;;;7.20
76901;BMP280;65859;43.020;25.096;2023-02-15T16:42:52;100595.13;;;7.23
76901;BMP280;65859;43.020;25.096;2023-02-15T16:45:22;100599.88;;;7.21
76901;BMP280;65859;43.020;25.096;2023-02-15T16:47:55;100602.75;;;7.20
76901;BMP280;65859;43.020;25.096;2023-02-15T16:50:30;100600.63;;;7.17
76901;BMP280;65859;43.020;25.096;2023-02-15T16:52:58;100607.25;;;7.09
76901;BMP280;65859;43.020;25.096;2023-02-15T16:55:44;100609.63;;;7.16
76901;BMP280;65859;43.020;25.096;2023-02-15T16:58:17;100597.19;;;7.01
76901;BMP280;65859;43.020;25.096;2023-02-15T17:00:46;100609.41;;;6.49
76901;BMP280;65859;43.020;25.096;2023-02-15T17:08:19;100614.47;;;5.44
76901;BMP280;65859;43.020;25.096;2023-02-15T17:11:14;100612.75;;;5.28
76901;BMP280;65859;43.020;25.096;2023-02-15T17:16:31;100610.31;;;5.48
76901;BMP280;65859;43.020;25.096;2023-02-15T17:19:01;100613.41;;;6.05
76901;BMP280;65859;43.020;25.096;2023-02-15T17:21:37;100608.13;;;6.05
76901;BMP280;65859;43.020;25.096;2023-02-15T17:24:06;100619.81;;;6.19
76901;BMP280;65859;43.020;25.096;2023-02-15T17:26:41;100614.59;;;6.34
76901;BMP280;65859;43.020;25.096;2023-02-15T17:29:31;100614.75;;;6.12
76901;BMP280;65859;43.020;25.096;2023-02-15T17:32:00;100623.16;;;6.04
76901;BMP280;65859;43.020;25.096;2023-02-15T17:34:50;100624.91;;;5.98
76901;BMP280;65859;43.020;25.096;2023-02-15T17:42:49;100632.84;;;4.68
76901;BMP280;65859;43.020;25.096;2023-02-15T17:45:16;100628.84;;;4.66
76901;BMP280;65859;43.020;25.096;2023-02-15T17:47:43;100631.53;;;4.71
76901;BMP280;65859;43.020;25.096;2023-02-15T17:50:37;100635.50;;;4.52
76901;BMP280;65859;43.020;25.096;2023-02-15T17:53:07;100634.28;;;4.59
76901;BMP280;65859;43.020;25.096;2023-02-15T17:55:34;100644.75;;;4.54